地図

経路データ

SID SEASON NUMBER BASIN SUBBASIN NAME ISO_TIME NATURE LAT LON WMO_WIND WMO_PRES WMO_AGENCY TRACK_TYPE DIST2LAND LANDFALL IFLAG USA_AGENCY USA_ATCF_ID USA_LAT USA_LON USA_RECORD USA_STATUS USA_WIND USA_PRES USA_SSHS USA_R34_NE USA_R34_SE USA_R34_SW USA_R34_NW USA_R50_NE USA_R50_SE USA_R50_SW USA_R50_NW USA_R64_NE USA_R64_SE USA_R64_SW USA_R64_NW USA_POCI USA_ROCI USA_RMW USA_EYE TOKYO_LAT TOKYO_LON TOKYO_GRADE TOKYO_WIND TOKYO_PRES TOKYO_R50_DIR TOKYO_R50_LONG TOKYO_R50_SHORT TOKYO_R30_DIR TOKYO_R30_LONG TOKYO_R30_SHORT TOKYO_LAND CMA_LAT CMA_LON CMA_CAT CMA_WIND CMA_PRES HKO_LAT HKO_LON HKO_CAT HKO_WIND HKO_PRES NEWDELHI_LAT NEWDELHI_LON NEWDELHI_GRADE NEWDELHI_WIND NEWDELHI_PRES NEWDELHI_CI NEWDELHI_DP NEWDELHI_POCI REUNION_LAT REUNION_LON REUNION_TYPE REUNION_WIND REUNION_PRES REUNION_TNUM REUNION_CI REUNION_RMW REUNION_R34_NE REUNION_R34_SE REUNION_R34_SW REUNION_R34_NW REUNION_R50_NE REUNION_R50_SE REUNION_R50_SW REUNION_R50_NW REUNION_R64_NE REUNION_R64_SE REUNION_R64_SW REUNION_R64_NW BOM_LAT BOM_LON BOM_TYPE BOM_WIND BOM_PRES BOM_TNUM BOM_CI BOM_RMW BOM_R34_NE BOM_R34_SE BOM_R34_SW BOM_R34_NW BOM_R50_NE BOM_R50_SE BOM_R50_SW BOM_R50_NW BOM_R64_NE BOM_R64_SE BOM_R64_SW BOM_R64_NW BOM_ROCI BOM_POCI BOM_EYE BOM_POS_METHOD BOM_PRES_METHOD NADI_LAT NADI_LON NADI_CAT NADI_WIND NADI_PRES WELLINGTON_LAT WELLINGTON_LON WELLINGTON_WIND WELLINGTON_PRES DS824_LAT DS824_LON DS824_STAGE DS824_WIND DS824_PRES TD9636_LAT TD9636_LON TD9636_STAGE TD9636_WIND TD9636_PRES TD9635_LAT TD9635_LON TD9635_WIND TD9635_PRES TD9635_ROCI NEUMANN_LAT NEUMANN_LON NEUMANN_CLASS NEUMANN_WIND NEUMANN_PRES MLC_LAT MLC_LON MLC_CLASS MLC_WIND MLC_PRES USA_GUST BOM_GUST BOM_GUST_PER REUNION_GUST REUNION_GUST_PER USA_SEAHGT USA_SEARAD_NE USA_SEARAD_SE USA_SEARAD_SW USA_SEARAD_NW STORM_SPEED STORM_DIR
1994181N22276 1994 41 NA CS ALBERTO 1994-06-30 06:00:00 TS 21.7000 -83.6000 25 1011 hurdat_atl main 46 30 O_____________ hurdat_atl AL011994 21.7000 -83.6000 TD 25 1011 -1 6 258
1994181N22276 1994 41 NA CS ALBERTO 1994-06-30 09:00:00 TS 21.6374 -83.9176 main 35 30 P_____________ AL011994 21.6374 -83.9176 TD 25 1010 -1 7 261
1994181N22276 1994 41 NA CS ALBERTO 1994-06-30 12:00:00 TS 21.6000 -84.3000 25 1010 hurdat_atl main 30 22 O_____________ hurdat_atl AL011994 21.6000 -84.3000 TD 25 1010 -1 8 267
1994181N22276 1994 41 NA CS ALBERTO 1994-06-30 15:00:00 TS 21.6002 -84.7724 main 22 22 P_____________ AL011994 21.6002 -84.7724 TD 27 1009 -1 8 270
1994181N22276 1994 41 NA CS ALBERTO 1994-06-30 18:00:00 TS 21.6000 -85.2000 30 1008 hurdat_atl main 39 39 O_____________ hurdat_atl AL011994 21.6000 -85.2000 TD 30 1008 -1 6 262
1994181N22276 1994 41 NA CS ALBERTO 1994-06-30 21:00:00 TS 21.5123 -85.4302 main 60 60 P_____________ AL011994 21.5123 -85.4302 TD 30 1008 -1 4 255
1994181N22276 1994 41 NA CS ALBERTO 1994-07-01 00:00:00 TS 21.5000 -85.6000 30 1008 hurdat_atl main 76 76 O_____________ hurdat_atl AL011994 21.5000 -85.6000 TD 30 1008 -1 4 296
1994181N22276 1994 41 NA CS ALBERTO 1994-07-01 03:00:00 TS 21.7051 -85.8573 main 95 93 P_____________ AL011994 21.7051 -85.8573 TD 30 1008 -1 7 317
1994181N22276 1994 41 NA GM ALBERTO 1994-07-01 06:00:00 TS 22.0000 -86.1000 30 1008 hurdat_atl main 106 106 O_____________ hurdat_atl AL011994 22.0000 -86.1000 TD 30 1008 -1 7 325
1994181N22276 1994 41 NA GM ALBERTO 1994-07-01 09:00:00 TS 22.2499 -86.2651 main 106 106 P_____________ AL011994 22.2499 -86.2651 TD 30 1008 -1 6 331
1994181N22276 1994 41 NA GM ALBERTO 1994-07-01 12:00:00 TS 22.5000 -86.4000 30 1008 hurdat_atl main 127 127 O_____________ hurdat_atl AL011994 22.5000 -86.4000 TD 30 1008 -1 6 332
1994181N22276 1994 41 NA GM ALBERTO 1994-07-01 15:00:00 TS 22.7350 -86.5427 main 143 140 P_____________ AL011994 22.7350 -86.5427 TD 30 1007 -1 6 331
1994181N22276 1994 41 NA GM ALBERTO 1994-07-01 18:00:00 TS 23.0000 -86.7000 30 1007 hurdat_atl main 170 170 O_____________ hurdat_atl AL011994 23.0000 -86.7000 TD 30 1007 -1 7 332
1994181N22276 1994 41 NA GM ALBERTO 1994-07-01 21:00:00 TS 23.3350 -86.8925 main 201 201 P_____________ AL011994 23.3350 -86.8925 TD 32 1006 -1 8 332
1994181N22276 1994 41 NA GM ALBERTO 1994-07-02 00:00:00 TS 23.7000 -87.1000 35 1006 hurdat_atl main 245 245 O_____________ hurdat_atl AL011994 23.7000 -87.1000 TS 35 1006 0 8 330
1994181N22276 1994 41 NA GM ALBERTO 1994-07-02 03:00:00 TS 24.0201 -87.3299 main 280 280 P_____________ AL011994 24.0201 -87.3299 TS 35 1005 0 8 332
1994181N22276 1994 41 NA GM ALBERTO 1994-07-02 06:00:00 TS 24.4000 -87.5000 35 1005 hurdat_atl main 324 324 O_____________ hurdat_atl AL011994 24.4000 -87.5000 TS 35 1005 0 9 346
1994181N22276 1994 41 NA GM ALBERTO 1994-07-02 09:00:00 TS 24.9274 -87.5747 main 380 380 P_____________ AL011994 24.9274 -87.5747 TS 37 1004 0 11 0
1994181N22276 1994 41 NA GM ALBERTO 1994-07-02 12:00:00 TS 25.5000 -87.5000 40 1003 hurdat_atl main 421 383 O_____________ hurdat_atl AL011994 25.5000 -87.5000 TS 40 1003 0 11 17
1994181N22276 1994 41 NA GM ALBERTO 1994-07-02 15:00:00 TS 25.9928 -87.2082 main 383 353 P_____________ AL011994 25.9928 -87.2082 TS 42 1001 0 11 28
1994181N22276 1994 41 NA GM ALBERTO 1994-07-02 18:00:00 TS 26.5000 -86.9000 45 1000 hurdat_atl main 353 309 O_____________ hurdat_atl AL011994 26.5000 -86.9000 TS 45 1000 0 12 18
1994181N22276 1994 41 NA GM ALBERTO 1994-07-02 21:00:00 TS 27.0924 -86.8046 main 309 261 P_____________ AL011994 27.0924 -86.8046 TS 45 999 0 12 4
1994181N22276 1994 41 NA GM ALBERTO 1994-07-03 00:00:00 TS 27.7000 -86.8000 45 998 hurdat_atl main 261 215 O_____________ hurdat_atl AL011994 27.7000 -86.8000 TS 45 998 0 12 0
1994181N22276 1994 41 NA GM ALBERTO 1994-07-03 03:00:00 TS 28.2575 -86.7998 main 207 168 P_____________ AL011994 28.2575 -86.7998 TS 47 997 0 11 0
1994181N22276 1994 41 NA GM ALBERTO 1994-07-03 06:00:00 TS 28.8000 -86.8000 50 997 hurdat_atl main 168 118 O_____________ hurdat_atl AL011994 28.8000 -86.8000 TS 50 997 0 11 1
1994181N22276 1994 41 NA GM ALBERTO 1994-07-03 09:00:00 TS 29.3602 -86.7873 main 107 55 P_____________ AL011994 29.3602 -86.7873 TS 52 995 0 11 5
1994181N22276 1994 41 NA GM ALBERTO 1994-07-03 12:00:00 TS 29.9000 -86.7000 55 993 hurdat_atl main 55 9 O_____________ hurdat_atl AL011994 29.9000 -86.7000 TS 55 993 0 11 14
1994181N22276 1994 41 NA GM ALBERTO 1994-07-03 15:00:00 TS 30.4000 -86.5000 55 993 hurdat_atl main 9 0 O_____________ hurdat_atl AL011994 30.4000 -86.5000 L TS 55 993 0 9 23
1994181N22276 1994 41 NA NA ALBERTO 1994-07-03 18:00:00 TS 30.7000 -86.3000 45 1000 hurdat_atl main 0 0 O_____________ hurdat_atl AL011994 30.7000 -86.3000 TS 45 1000 0 6 26
1994181N22276 1994 41 NA NA ALBERTO 1994-07-03 21:00:00 TS 30.9602 -86.1794 main 0 0 P_____________ AL011994 30.9602 -86.1794 TS 35 1002 0 5 19
1994181N22276 1994 41 NA NA ALBERTO 1994-07-04 00:00:00 TS 31.2000 -86.1000 25 1004 hurdat_atl main 0 0 O_____________ hurdat_atl AL011994 31.2000 -86.1000 TD 25 1004 -1 5 17
1994181N22276 1994 41 NA NA ALBERTO 1994-07-04 03:00:00 TS 31.4424 -86.0148 main 0 0 P_____________ AL011994 31.4424 -86.0148 TD 22 1006 -1 5 19
1994181N22276 1994 41 NA NA ALBERTO 1994-07-04 06:00:00 TS 31.7000 -85.9000 20 1009 hurdat_atl main 0 0 O_____________ hurdat_atl AL011994 31.7000 -85.9000 TD 20 1009 -1 6 25
1994181N22276 1994 41 NA NA ALBERTO 1994-07-04 09:00:00 TS 32.0076 -85.7077 main 0 0 P_____________ AL011994 32.0076 -85.7077 TD 20 1010 -1 7 29
1994181N22276 1994 41 NA NA ALBERTO 1994-07-04 12:00:00 TS 32.3000 -85.5000 20 1011 hurdat_atl main 0 0 O_____________ hurdat_atl AL011994 32.3000 -85.5000 TD 20 1011 -1 6 31
1994181N22276 1994 41 NA NA ALBERTO 1994-07-04 15:00:00 TS 32.5225 -85.3349 main 0 0 P_____________ AL011994 32.5225 -85.3349 TD 20 1012 -1 5 32
1994181N22276 1994 41 NA NA ALBERTO 1994-07-04 18:00:00 TS 32.7000 -85.2000 20 1014 hurdat_atl main 0 0 O_____________ hurdat_atl AL011994 32.7000 -85.2000 TD 20 1014 -1 4 31
1994181N22276 1994 41 NA NA ALBERTO 1994-07-04 21:00:00 TS 32.8650 -85.0849 main 0 0 P_____________ AL011994 32.8650 -85.0849 TD 20 1014 -1 3 29
1994181N22276 1994 41 NA NA ALBERTO 1994-07-05 00:00:00 TS 33.0000 -85.0000 20 1014 hurdat_atl main 0 0 O_____________ hurdat_atl AL011994 33.0000 -85.0000 TD 20 1014 -1 3 25
1994181N22276 1994 41 NA NA ALBERTO 1994-07-05 03:00:00 TS 33.1150 -84.9425 main 0 0 P_____________ AL011994 33.1150 -84.9425 TD 20 1013 -1 2 23
1994181N22276 1994 41 NA NA ALBERTO 1994-07-05 06:00:00 TS 33.2000 -84.9000 20 1013 hurdat_atl main 0 0 O_____________ hurdat_atl AL011994 33.2000 -84.9000 TD 20 1013 -1 2 28
1994181N22276 1994 41 NA NA ALBERTO 1994-07-05 09:00:00 TS 33.2500 -84.8575 main 0 0 P_____________ AL011994 33.2500 -84.8575 TD 20 1013 -1 1 37
1994181N22276 1994 41 NA NA ALBERTO 1994-07-05 12:00:00 TS 33.3000 -84.8000 20 1013 hurdat_atl main 0 0 O_____________ hurdat_atl AL011994 33.3000 -84.8000 TD 20 1013 -1 2 37
1994181N22276 1994 41 NA NA ALBERTO 1994-07-05 15:00:00 TS 33.4150 -84.7076 main 0 0 P_____________ AL011994 33.4150 -84.7076 TD 20 1012 -1 3 40
1994181N22276 1994 41 NA NA ALBERTO 1994-07-05 18:00:00 TS 33.5000 -84.6000 20 1012 hurdat_atl main 0 0 O_____________ hurdat_atl AL011994 33.5000 -84.6000 TD 20 1012 -1 2 73
1994181N22276 1994 41 NA NA ALBERTO 1994-07-05 21:00:00 TS 33.4725 -84.4774 main 0 0 P_____________ AL011994 33.4725 -84.4774 TD 17 1012 -1 2 121
1994181N22276 1994 41 NA NA ALBERTO 1994-07-06 00:00:00 TS 33.4000 -84.4000 15 1013 hurdat_atl main 0 0 O_____________ hurdat_atl AL011994 33.4000 -84.4000 TD 15 1013 -1 1 157
1994181N22276 1994 41 NA NA ALBERTO 1994-07-06 03:00:00 TS 33.3575 -84.4125 main 0 0 P_____________ AL011994 33.3575 -84.4125 TD 15 1013 -1 1 217
1994181N22276 1994 41 NA NA ALBERTO 1994-07-06 06:00:00 TS 33.3000 -84.5000 15 1013 hurdat_atl main 0 0 O_____________ hurdat_atl AL011994 33.3000 -84.5000 TD 15 1013 -1 2 230
1994181N22276 1994 41 NA NA ALBERTO 1994-07-06 09:00:00 TS 33.2149 -84.6124 main 0 0 P_____________ AL011994 33.2149 -84.6124 TD 15 1013 -1 3 232
1994181N22276 1994 41 NA NA ALBERTO 1994-07-06 12:00:00 TS 33.1000 -84.8000 15 1013 hurdat_atl main 0 0 O_____________ hurdat_atl AL011994 33.1000 -84.8000 TD 15 1013 -1 5 234
1994181N22276 1994 41 NA NA ALBERTO 1994-07-06 15:00:00 TS 32.9424 -85.0552 main 0 0 P_____________ AL011994 32.9424 -85.0552 TD 15 1013 -1 6 239
1994181N22276 1994 41 NA NA ALBERTO 1994-07-06 18:00:00 TS 32.8000 -85.4000 15 1013 hurdat_atl main 0 0 O_____________ hurdat_atl AL011994 32.8000 -85.4000 TD 15 1013 -1 7 253
1994181N22276 1994 41 NA NA ALBERTO 1994-07-06 21:00:00 TS 32.7279 -85.8724 main 0 0 P_____________ AL011994 32.7279 -85.8724 TD 12 1012 -1 8 262
1994181N22276 1994 41 NA NA ALBERTO 1994-07-07 00:00:00 TS 32.7000 -86.3000 10 1012 hurdat_atl main 0 0 O_____________ hurdat_atl AL011994 32.7000 -86.3000 TD 10 1012 -1 5 265
1994181N22276 1994 41 NA NA ALBERTO 1994-07-07 03:00:00 TS 32.6847 -86.5024 main 0 0 P_____________ AL011994 32.6847 -86.5024 TD 10 1012 -1 3 270
1994181N22276 1994 41 NA NA ALBERTO 1994-07-07 06:00:00 TS 32.7000 -86.6000 10 1012 hurdat_atl main 0 0 O_____________ hurdat_atl AL011994 32.7000 -86.6000 TD 10 1012 -1 2 286
1994181N22276 1994 41 NA NA ALBERTO 1994-07-07 09:00:00 TS 32.7350 -86.7075 main 0 0 P_____________ AL011994 32.7350 -86.7075 TD 10 1012 -1 2 301
1994181N22276 1994 41 NA NA ALBERTO 1994-07-07 12:00:00 TS 32.8000 -86.8000 10 1012 hurdat_atl main 0 0 O_____________ hurdat_atl AL011994 32.8000 -86.8000 TD 10 1012 -1 2 315
1994181N22276 1994 41 NA NA ALBERTO 1994-07-07 15:00:00 TS 32.8925 -86.8974 main 0 0 P_____________ AL011994 32.8925 -86.8974 TD 10 1012 -1 3 320
1994181N22276 1994 41 NA NA ALBERTO 1994-07-07 18:00:00 TS 33.0000 -87.0000 10 1013 hurdat_atl main 0 O_____________ hurdat_atl AL011994 33.0000 -87.0000 TD 10 1013 -1 3 322

IBTrACS Databaseについて

本データベースは、米国NOAAが公開する1842年以降の世界の熱帯低気圧のベストトラックデータアーカイブInternational Best Track Archive for Climate Stewardship (IBTrACS)を、ウェブで閲覧しやすい形式に変換したものです。

最終更新日:2021-11-26